Time;durP1;ratioP1;P1;durP2;ratioP2;P2;SDS_P1;SDS_P2;PMS_P1;PMS_P2;Temp;Humidity;BMP_temperature;BMP_pressure;BME280_temperature;BME280_humidity;BME280_pressure;Samples;Min_cycle;Max_cycle;Signal;HPM_P1;HPM_P2
2023/07/29 00:01:49;;;;;;;8.15;4.97;;;;;;;17.72;100.00;100625.56;5070513;28;20044;-75
2023/07/29 00:04:15;;;;;;;9.98;4.97;;;;;;;17.73;100.00;100637.97;5071738;28;20142;-75
2023/07/29 00:06:40;;;;;;;6.57;4.20;;;;;;;17.71;100.00;100638.25;5071507;28;20072;-75
2023/07/29 00:09:06;;;;;;;8.32;5.22;;;;;;;17.54;100.00;100599.69;5071314;28;20526;-75
2023/07/29 00:11:33;;;;;;;9.75;5.40;;;;;;;17.63;100.00;100621.66;5070240;28;20120;-75
2023/07/29 00:14:00;;;;;;;7.45;4.28;;;;;;;17.64;100.00;100632.19;5071233;28;20033;-75
2023/07/29 00:16:25;;;;;;;9.60;4.85;;;;;;;17.60;100.00;100620.25;5071380;28;20036;-75
2023/07/29 00:18:51;;;;;;;7.65;4.30;;;;;;;17.61;100.00;100610.31;5071314;28;20032;-75
2023/07/29 00:21:17;;;;;;;6.63;4.53;;;;;;;17.49;100.00;100584.25;5069380;28;20053;-75
2023/07/29 00:23:42;;;;;;;7.55;4.63;;;;;;;17.55;100.00;100587.03;5069838;28;20178;-75
2023/07/29 00:26:07;;;;;;;8.65;5.28;;;;;;;17.65;100.00;100616.81;5071030;28;20402;-75
2023/07/29 00:28:33;;;;;;;8.27;4.65;;;;;;;17.55;100.00;100603.19;5069421;28;20038;-75
2023/07/29 00:30:58;;;;;;;8.52;5.00;;;;;;;17.55;100.00;100605.91;5070719;28;20116;-75
2023/07/29 00:33:24;;;;;;;7.07;4.72;;;;;;;17.57;100.00;100609.16;5070553;28;20063;-75
2023/07/29 00:35:49;;;;;;;10.57;5.80;;;;;;;17.68;100.00;100625.25;5069527;28;20060;-75
2023/07/29 00:38:15;;;;;;;10.27;6.05;;;;;;;17.55;100.00;100597.81;5069271;28;20028;-75
2023/07/29 00:40:40;;;;;;;8.40;5.07;;;;;;;17.69;100.00;100631.47;5070795;28;20063;-75
2023/07/29 00:43:05;;;;;;;7.75;4.78;;;;;;;17.55;100.00;100603.19;5069692;28;20446;-75
2023/07/29 00:45:32;;;;;;;12.25;5.18;;;;;;;17.50;100.00;100604.78;5069593;28;20036;-75
2023/07/29 00:47:59;;;;;;;11.07;5.97;;;;;;;17.53;100.00;100601.59;5069905;28;20034;-75
2023/07/29 00:50:27;;;;;;;9.45;5.32;;;;;;;17.59;100.00;100607.06;5070689;28;20024;-75
2023/07/29 00:52:53;;;;;;;11.00;4.75;;;;;;;17.51;100.00;100592.91;5069251;28;20124;-75
2023/07/29 00:55:18;;;;;;;8.75;5.00;;;;;;;17.50;100.00;100571.59;5052864;28;20111;-75
2023/07/29 00:57:48;;;;;;;10.40;5.90;;;;;;;17.49;100.00;100581.56;5069051;28;20029;-75
2023/07/29 01:00:14;;;;;;;9.70;5.43;;;;;;;17.63;100.00;100600.91;5070804;28;20028;-75
2023/07/29 01:02:39;;;;;;;8.60;4.90;;;;;;;17.65;100.00;100604.16;5069533;28;20029;-75
2023/07/29 01:05:06;;;;;;;8.05;5.00;;;;;;;17.56;100.00;100591.38;5069953;28;20029;-75
2023/07/29 01:07:43;;;;;;;13.18;7.35;;;;;;;17.60;100.00;100596.00;5070692;28;20399;-75
2023/07/29 01:10:27;;;;;;;13.52;7.15;;;;;;;17.62;100.00;100603.84;5070709;28;20032;-75
2023/07/29 01:13:04;;;;;;;10.98;5.50;;;;;;;17.45;100.00;100576.94;5070791;28;20031;-75
2023/07/29 01:15:30;;;;;;;9.90;6.00;;;;;;;17.58;100.00;100605.41;5070532;28;20388;-75
2023/07/29 01:18:10;;;;;;;7.07;5.10;;;;;;;17.53;100.00;100606.97;5070714;28;20029;-75
2023/07/29 01:20:39;;;;;;;8.50;4.70;;;;;;;17.42;100.00;100594.44;5070334;28;20024;-75
2023/07/29 01:23:05;;;;;;;8.68;5.20;;;;;;;17.31;100.00;100579.97;5069634;28;20044;-75
2023/07/29 01:25:30;;;;;;;9.25;4.93;;;;;;;17.51;100.00;100598.31;5070610;28;20043;-75
2023/07/29 01:27:57;;;;;;;10.45;5.72;;;;;;;17.49;100.00;100595.03;5068999;28;20372;-75
2023/07/29 01:30:28;;;;;;;8.93;5.55;;;;;;;17.48;100.00;100598.00;5069474;28;20028;-75
2023/07/29 01:33:04;;;;;;;9.48;5.28;;;;;;;17.50;100.00;100607.47;5070477;28;20501;-75
2023/07/29 01:35:39;;;;;;;9.82;5.75;;;;;;;17.34;100.00;100580.53;5070042;28;20032;-75
2023/07/29 01:38:31;;;;;;;9.02;6.07;;;;;;;17.37;100.00;100574.66;5070501;28;20020;-75
2023/07/29 01:41:01;;;;;;;12.75;6.68;;;;;;;17.26;100.00;100561.00;5070036;28;20029;-75
2023/07/29 01:43:27;;;;;;;10.10;6.30;;;;;;;17.39;100.00;100581.41;5070327;28;20036;-75
2023/07/29 01:45:52;;;;;;;9.93;5.88;;;;;;;17.34;100.00;100573.25;5069990;28;20036;-75
2023/07/29 01:48:17;;;;;;;11.00;5.68;;;;;;;17.32;100.00;100575.41;5068917;28;20028;-75
2023/07/29 01:50:43;;;;;;;9.82;5.72;;;;;;;17.46;100.00;100605.53;5068985;28;20033;-75
2023/07/29 01:53:08;;;;;;;9.95;5.75;;;;;;;17.34;100.00;100588.63;5052082;28;20048;-75
2023/07/29 01:55:34;;;;;;;9.15;5.00;;;;;;;17.42;100.00;100605.22;5070387;28;20036;-75
2023/07/29 01:57:59;;;;;;;9.65;6.30;;;;;;;17.22;100.00;100570.69;5068540;28;20123;-75
2023/07/29 02:00:24;;;;;;;14.52;7.82;;;;;;;17.31;100.00;100581.84;5072081;28;20107;-75
2023/07/29 02:02:50;;;;;;;13.40;6.47;;;;;;;17.41;100.00;100597.34;5072026;28;20031;-75
2023/07/29 02:05:15;;;;;;;14.63;8.30;;;;;;;17.25;100.00;100582.84;5072574;28;20123;-75
2023/07/29 02:07:40;;;;;;;14.32;7.03;;;;;;;17.27;100.00;100592.31;5074225;28;20038;-75
2023/07/29 02:10:07;;;;;;;14.43;8.23;;;;;;;17.26;100.00;100590.66;5056458;28;20387;-75
2023/07/29 02:12:33;;;;;;;14.25;7.57;;;;;;;17.45;100.00;100614.69;5074480;28;20522;-75
2023/07/29 02:14:58;;;;;;;12.25;7.22;;;;;;;17.25;100.00;100586.34;5074246;28;20064;-75
2023/07/29 02:17:23;;;;;;;10.27;6.57;;;;;;;17.33;100.00;100597.78;5072952;28;20060;-75
2023/07/29 02:19:49;;;;;;;11.63;6.65;;;;;;;17.36;100.00;100608.88;5073402;28;20434;-75
2023/07/29 02:22:17;;;;;;;11.02;6.85;;;;;;;17.29;100.00;100606.38;5055824;28;20060;-75
2023/07/29 02:24:42;;;;;;;12.18;6.40;;;;;;;17.30;100.00;100593.69;5073838;28;20463;-75
2023/07/29 02:27:08;;;;;;;11.85;6.95;;;;;;;17.31;100.00;100577.25;5056448;28;20040;-75
2023/07/29 02:29:33;;;;;;;12.65;7.35;;;;;;;17.21;100.00;100569.06;5073009;28;20036;-75
2023/07/29 02:31:59;;;;;;;12.63;6.70;;;;;;;17.42;100.00;100590.88;5072113;28;20033;-75
2023/07/29 02:34:25;;;;;;;9.65;6.20;;;;;;;17.30;100.00;100569.44;5072626;28;20039;-75
2023/07/29 02:36:50;;;;;;;15.40;6.85;;;;;;;17.39;100.00;100594.09;5073947;28;20033;-75
2023/07/29 02:39:15;;;;;;;13.27;6.93;;;;;;;17.38;100.00;100584.38;5072822;28;20032;-75
2023/07/29 02:41:41;;;;;;;9.00;5.50;;;;;;;17.20;100.00;100569.28;5073907;28;20024;-75
2023/07/29 02:44:06;;;;;;;9.88;5.50;;;;;;;17.35;100.00;100593.78;5073258;28;20476;-75
2023/07/29 02:46:32;;;;;;;7.97;5.43;;;;;;;17.31;100.00;100601.53;5072783;28;20056;-75
2023/07/29 02:48:57;;;;;;;8.75;5.15;;;;;;;17.14;100.00;100570.28;5055765;28;20115;-75
2023/07/29 02:51:22;;;;;;;7.03;4.03;;;;;;;17.18;100.00;100579.50;5073056;28;20033;-75
2023/07/29 02:53:48;;;;;;;8.50;5.60;;;;;;;17.23;100.00;100596.56;5073281;28;20518;-75
2023/07/29 02:56:13;;;;;;;14.82;5.85;;;;;;;17.04;100.00;100569.06;5071962;28;20028;-75
2023/07/29 02:58:39;;;;;;;10.32;5.47;;;;;;;17.07;100.00;100581.22;5071755;28;20035;-75
2023/07/29 03:01:06;;;;;;;10.45;6.00;;;;;;;17.05;100.00;100577.97;5073431;28;20384;-75
2023/07/29 03:03:32;;;;;;;10.85;5.57;;;;;;;17.03;100.00;100580.09;5071833;28;20025;-75
2023/07/29 03:06:06;;;;;;;8.88;5.10;;;;;;;17.15;100.00;100591.59;5072818;28;20645;-75
2023/07/29 03:08:31;;;;;;;9.55;4.85;;;;;;;17.08;100.00;100586.38;5072887;28;20032;-75
2023/07/29 03:10:57;;;;;;;9.90;5.32;;;;;;;16.99;100.00;100574.38;5054512;28;20074;-75
2023/07/29 03:13:23;;;;;;;9.52;5.20;;;;;;;16.95;100.00;100577.81;5072940;28;20476;-75
2023/07/29 03:15:48;;;;;;;7.63;5.30;;;;;;;17.05;100.00;100586.84;5072877;28;20024;-75
2023/07/29 03:18:14;;;;;;;10.00;5.65;;;;;;;16.84;100.00;100574.13;5072947;28;20033;-75
2023/07/29 03:20:40;;;;;;;7.60;4.55;;;;;;;16.87;100.00;100568.25;5071475;28;20564;-75
2023/07/29 03:23:06;;;;;;;8.65;5.43;;;;;;;16.85;100.00;100571.19;5071250;28;20040;-75
2023/07/29 03:25:31;;;;;;;9.57;5.45;;;;;;;16.99;100.00;100592.44;5071400;28;20099;-75
2023/07/29 03:27:56;;;;;;;10.40;5.18;;;;;;;16.95;100.00;100581.34;5072343;28;20052;-74
2023/07/29 03:30:22;;;;;;;9.20;4.70;;;;;;;16.77;100.00;100568.09;5072474;28;20025;-74
2023/07/29 03:32:47;;;;;;;8.82;4.50;;;;;;;16.92;100.00;100594.47;5071247;28;20033;-75
2023/07/29 03:35:13;;;;;;;9.25;4.40;;;;;;;16.65;100.00;100570.84;5071310;28;20028;-74
2023/07/29 03:37:39;;;;;;;7.18;4.28;;;;;;;16.75;100.00;100587.16;5072072;28;20055;-74
2023/07/29 03:40:05;;;;;;;13.23;5.15;;;;;;;16.81;100.00;100607.75;5070363;28;20094;-74
2023/07/29 03:42:31;;;;;;;8.52;4.32;;;;;;;16.77;100.00;100603.09;5072457;28;20024;-74
2023/07/29 03:44:56;;;;;;;8.27;4.85;;;;;;;16.54;100.00;100577.13;5072616;28;20024;-74
2023/07/29 03:47:21;;;;;;;7.78;4.38;;;;;;;16.54;100.00;100572.53;5070932;28;20447;-74
2023/07/29 03:49:47;;;;;;;8.13;4.30;;;;;;;16.71;100.00;100610.25;5070441;28;20028;-74
2023/07/29 03:52:12;;;;;;;7.68;4.25;;;;;;;16.61;100.00;100602.81;5071280;28;20036;-74
2023/07/29 03:54:38;;;;;;;8.00;4.03;;;;;;;16.54;100.00;100590.56;5070572;28;20032;-74
2023/07/29 03:57:03;;;;;;;7.80;4.75;;;;;;;16.51;100.00;100585.69;5070604;28;20082;-74
2023/07/29 03:59:29;;;;;;;11.18;3.55;;;;;;;16.53;100.00;100592.47;5070743;28;20040;-74
2023/07/29 04:01:54;;;;;;;9.23;5.05;;;;;;;16.45;100.00;100584.75;5071065;28;20035;-74
2023/07/29 04:04:20;;;;;;;6.45;4.05;;;;;;;16.42;100.00;100585.25;5070304;28;20028;-74
2023/07/29 04:06:45;;;;;;;12.57;4.07;;;;;;;16.44;100.00;100565.09;5070391;28;20064;-74
2023/07/29 04:09:11;;;;;;;7.88;3.92;;;;;;;16.57;100.00;100577.44;5070343;28;20032;-74
2023/07/29 04:11:36;;;;;;;7.22;4.55;;;;;;;16.40;100.00;100547.81;5070077;28;20075;-74
2023/07/29 04:14:02;;;;;;;7.72;4.32;;;;;;;16.34;100.00;100539.88;5053512;28;20119;-74
2023/07/29 04:16:28;;;;;;;8.70;3.95;;;;;;;16.43;100.00;100551.91;5070819;28;20024;-74
2023/07/29 04:18:54;;;;;;;8.93;4.22;;;;;;;16.50;100.00;100575.94;5071140;28;20081;-74
2023/07/29 04:21:19;;;;;;;8.38;4.25;;;;;;;16.51;100.00;100570.34;5070225;28;20406;-74
2023/07/29 04:23:44;;;;;;;5.07;3.35;;;;;;;16.32;100.00;100531.22;5069194;28;20471;-74
2023/07/29 04:26:10;;;;;;;9.10;3.92;;;;;;;16.42;100.00;100550.25;5053465;28;20062;-74
2023/07/29 04:28:35;;;;;;;7.35;3.60;;;;;;;16.33;100.00;100546.34;5071086;28;20028;-74
2023/07/29 04:31:00;;;;;;;5.55;3.47;;;;;;;16.33;100.00;100562.47;5069796;28;20036;-74
2023/07/29 04:33:26;;;;;;;6.57;3.67;;;;;;;16.47;100.00;100606.06;5071350;28;20036;-74
2023/07/29 04:35:51;;;;;;;6.28;3.53;;;;;;;16.34;100.00;100594.53;5060720;28;20090;-74
2023/07/29 04:38:16;;;;;;;5.57;3.40;;;;;;;16.44;100.00;100626.19;5036187;28;20086;-74
2023/07/29 04:40:42;;;;;;;7.90;4.30;;;;;;;16.32;100.00;100606.59;5069420;28;20107;-74
2023/07/29 04:43:07;;;;;;;7.55;4.70;;;;;;;16.24;100.00;100604.28;5070886;28;20098;-74
2023/07/29 04:45:32;;;;;;;9.52;3.88;;;;;;;16.24;100.00;100599.72;5071155;28;20030;-74
2023/07/29 04:47:58;;;;;;;8.40;4.13;;;;;;;16.38;100.00;100617.22;5070898;28;20115;-74
2023/07/29 04:50:24;;;;;;;8.63;4.20;;;;;;;16.39;100.00;100618.84;5070495;28;20058;-74
2023/07/29 04:52:49;;;;;;;7.70;4.68;;;;;;;16.20;100.00;100585.94;5069853;28;20127;-74
2023/07/29 04:55:15;;;;;;;8.40;3.58;;;;;;;16.31;100.00;100607.66;5069888;28;20382;-75
2023/07/29 04:57:40;;;;;;;6.25;3.40;;;;;;;16.31;100.00;100611.16;5070794;28;20074;-74
2023/07/29 05:00:06;;;;;;;8.35;4.40;;;;;;;16.31;100.00;100594.19;5069286;28;20364;-74
2023/07/29 05:02:31;;;;;;;7.40;3.90;;;;;;;16.47;100.00;100617.63;5053085;28;20056;-74
2023/07/29 05:04:57;;;;;;;9.02;4.45;;;;;;;16.37;100.00;100594.06;5069634;28;20449;-74
2023/07/29 05:07:22;;;;;;;7.85;3.63;;;;;;;16.36;100.00;100599.66;5069551;28;20150;-74
2023/07/29 05:09:48;;;;;;;8.18;4.07;;;;;;;16.38;100.00;100605.63;5071283;28;20123;-74
2023/07/29 05:12:13;;;;;;;5.32;3.40;;;;;;;16.36;100.00;100596.97;5070826;28;20033;-74
2023/07/29 05:14:39;;;;;;;5.32;3.03;;;;;;;16.44;100.00;100602.78;5070631;28;20028;-75
2023/07/29 05:17:05;;;;;;;10.35;3.67;;;;;;;16.43;100.00;100608.44;5070756;28;20270;-75
2023/07/29 05:19:30;;;;;;;5.22;3.63;;;;;;;16.58;100.00;100632.94;5069533;28;20111;-74
2023/07/29 05:21:57;;;;;;;6.28;3.65;;;;;;;16.47;100.00;100622.22;5069704;28;20025;-74
2023/07/29 05:24:23;;;;;;;6.72;4.18;;;;;;;16.48;100.00;100621.13;5070511;28;20028;-74
2023/07/29 05:26:48;;;;;;;7.35;4.63;;;;;;;16.38;100.00;100616.41;5069885;28;20953;-74
2023/07/29 05:29:13;;;;;;;7.18;3.92;;;;;;;16.47;100.00;100622.22;5069895;28;20526;-75
2023/07/29 05:31:39;;;;;;;6.45;3.63;;;;;;;16.54;100.00;100636.34;5067853;28;20107;-75
2023/07/29 05:34:04;;;;;;;6.97;3.65;;;;;;;16.57;100.00;100630.47;5069579;28;20642;-75
2023/07/29 05:36:30;;;;;;;6.50;3.13;;;;;;;16.58;100.00;100624.03;5075096;28;20031;-75
2023/07/29 05:38:55;;;;;;;6.25;3.03;;;;;;;16.73;100.00;100643.16;5056875;28;20107;-75
2023/07/29 05:41:20;;;;;;;6.57;3.67;;;;;;;16.55;100.00;100614.53;5074582;28;20369;-74
2023/07/29 05:43:46;;;;;;;5.45;3.40;;;;;;;16.75;100.00;100634.84;5074714;28;20029;-74
2023/07/29 05:46:12;;;;;;;10.13;3.50;;;;;;;16.61;100.00;100616.28;5073302;28;20115;-74
2023/07/29 05:48:37;;;;;;;6.35;2.85;;;;;;;16.76;100.00;100645.34;5075031;28;20093;-74
2023/07/29 05:51:03;;;;;;;6.40;2.92;;;;;;;16.80;100.00;100651.13;5074309;28;20028;-75
2023/07/29 05:53:29;;;;;;;5.28;2.53;;;;;;;16.75;100.00;100637.53;5073924;28;20112;-75
2023/07/29 05:55:54;;;;;;;7.05;3.80;;;;;;;16.70;100.00;100630.16;5056813;28;20128;-75
2023/07/29 05:58:20;;;;;;;6.22;4.03;;;;;;;16.91;100.00;100642.13;5056236;28;20039;-74
2023/07/29 06:00:45;;;;;;;7.47;3.25;;;;;;;16.90;100.00;100623.50;5073093;28;20403;-74
2023/07/29 06:03:11;;;;;;;8.02;3.90;;;;;;;17.17;100.00;100643.38;5073850;28;20035;-74
2023/07/29 06:05:36;;;;;;;7.00;2.88;;;;;;;17.34;100.00;100643.34;5073469;28;20052;-75
2023/07/29 06:08:02;;;;;;;5.25;3.30;;;;;;;17.40;100.00;100644.28;5073319;28;20028;-75
2023/07/29 06:10:27;;;;;;;10.00;3.70;;;;;;;17.46;100.00;100645.97;5073441;28;20185;-75
2023/07/29 06:12:52;;;;;;;5.80;2.95;;;;;;;17.56;100.00;100651.50;5073637;28;20060;-76
2023/07/29 06:15:21;;;;;;;9.00;3.50;;;;;;;17.57;100.00;100641.53;5072105;28;20102;-75
2023/07/29 06:17:47;;;;;;;5.22;3.10;;;;;;;17.60;100.00;100638.34;5073603;28;20464;-78
2023/07/29 06:20:12;;;;;;;4.93;3.15;;;;;;;17.61;100.00;100618.41;5073299;28;20059;-75
2023/07/29 06:22:38;;;;;;;6.97;2.83;;;;;;;17.62;100.00;100622.72;5073381;28;20037;-75
2023/07/29 06:25:03;;;;;;;8.63;2.75;;;;;;;17.84;100.00;100642.50;5056159;28;20028;-75
2023/07/29 06:27:29;;;;;;;5.35;3.08;;;;;;;17.73;100.00;100628.00;5074103;28;20403;-75
2023/07/29 06:29:54;;;;;;;6.47;2.78;;;;;;;17.79;100.00;100633.47;5074462;28;20035;-75
2023/07/29 06:32:19;;;;;;;4.38;3.00;;;;;;;17.87;100.00;100623.09;5056186;28;20551;-75
2023/07/29 06:34:45;;;;;;;7.40;3.38;;;;;;;17.80;100.00;100613.56;5072323;28;20040;-76
2023/07/29 06:37:10;;;;;;;7.35;3.83;;;;;;;17.95;100.00;100641.53;5072829;28;20038;-76
2023/07/29 06:39:35;;;;;;;5.22;2.78;;;;;;;17.98;100.00;100644.81;5072661;28;20123;-77
2023/07/29 06:42:01;;;;;;;5.28;3.15;;;;;;;17.84;100.00;100631.69;5072795;28;21013;-75
2023/07/29 06:44:27;;;;;;;5.63;3.17;;;;;;;17.95;100.00;100656.94;5072518;28;20055;-76
2023/07/29 06:46:52;;;;;;;7.68;3.78;;;;;;;17.80;100.00;100644.03;5071125;28;20458;-75
2023/07/29 06:49:18;;;;;;;11.40;3.95;;;;;;;17.88;100.00;100651.69;5056517;28;20077;-74
2023/07/29 06:51:43;;;;;;;6.60;3.88;;;;;;;18.04;100.00;100665.38;5073690;28;20333;-75
2023/07/29 06:54:08;;;;;;;6.30;3.70;;;;;;;17.98;100.00;100647.50;5073182;28;20032;-75
2023/07/29 06:56:34;;;;;;;5.35;3.10;;;;;;;17.98;100.00;100647.50;5054780;28;20177;-75
2023/07/29 06:58:59;;;;;;;7.13;3.33;;;;;;;18.07;100.00;100660.28;5073926;28;20028;-75
2023/07/29 07:01:24;;;;;;;9.85;3.85;;;;;;;17.95;100.00;100641.53;5073732;28;20382;-75
2023/07/29 07:03:50;;;;;;;6.55;3.60;;;;;;;18.01;100.00;100642.41;5072001;28;20036;-75
2023/07/29 07:06:15;;;;;;;6.13;3.03;;;;;;;18.17;100.00;100655.03;5055792;28;20050;-75
2023/07/29 07:08:41;;;;;;;5.53;2.85;;;;;;;18.07;100.00;100632.50;5073546;28;20106;-75
2023/07/29 07:11:07;;;;;;;8.32;3.15;;;;;;;18.08;100.00;100631.44;5038885;28;20391;-75
2023/07/29 07:13:32;;;;;;;5.75;3.03;;;;;;;18.17;100.00;100646.94;5071776;28;20082;-75
2023/07/29 07:15:58;;;;;;;5.43;3.00;;;;;;;18.30;100.00;100656.53;5071826;28;20115;-75
2023/07/29 07:18:23;;;;;;;5.68;2.40;;;;;;;18.44;100.00;100665.03;5073273;28;20075;-74
2023/07/29 07:20:49;;;;;;;5.57;2.88;;;;;;;18.45;100.00;100666.69;5072174;28;20024;-74
2023/07/29 07:23:15;;;;;;;4.03;2.83;;;;;;;18.56;100.00;100675.72;5074061;28;20122;-75
2023/07/29 07:25:42;;;;;;;6.75;2.67;;;;;;;18.44;100.00;100662.34;5072504;28;20112;-75
2023/07/29 07:28:08;;;;;;;4.22;2.88;;;;;;;18.65;100.00;100657.16;5072976;28;20114;-75
2023/07/29 07:30:33;;;;;;;5.43;2.40;;;;;;;18.66;100.00;100646.09;5070995;28;20121;-75
2023/07/29 07:32:59;;;;;;;6.20;2.83;;;;;;;18.75;100.00;100654.59;5055585;28;20048;-75
2023/07/29 07:35:24;;;;;;;5.57;3.00;;;;;;;18.71;100.00;100648.84;5071603;28;20032;-75
2023/07/29 07:37:49;;;;;;;7.18;3.42;;;;;;;18.95;100.00;100681.00;5071757;28;20111;-75
2023/07/29 07:40:15;;;;;;;3.40;2.70;;;;;;;18.88;100.00;100670.38;5055145;28;20383;-74
2023/07/29 07:42:40;;;;;;;6.72;3.17;;;;;;;18.81;100.00;100670.59;5054538;28;20032;-74
2023/07/29 07:45:06;;;;;;;6.07;2.83;;;;;;;18.83;100.00;100662.22;5071634;28;20020;-75
2023/07/29 07:47:31;;;;;;;2.92;2.42;;;;;;;18.99;100.00;100693.75;5072598;28;20444;-74
2023/07/29 07:49:56;;;;;;;6.68;3.30;;;;;;;18.89;100.00;100668.50;5072390;28;20017;-74
2023/07/29 07:52:22;;;;;;;5.05;3.35;;;;;;;18.85;100.00;100667.38;5071940;28;20028;-74
2023/07/29 07:54:53;;;;;;;3.90;2.55;;;;;;;18.81;100.00;100678.72;5054965;28;20036;-74
2023/07/29 07:57:18;;;;;;;5.35;3.30;;;;;;;18.89;100.00;100692.81;5072398;28;20033;-74
2023/07/29 07:59:43;;;;;;;10.13;2.83;;;;;;;18.73;100.00;100672.91;5072262;28;20029;-75
2023/07/29 08:02:09;;;;;;;5.05;2.55;;;;;;;18.94;100.00;100706.38;5071649;28;20040;-74
2023/07/29 08:04:35;;;;;;;4.00;2.60;;;;;;;18.83;100.00;100673.03;5072632;28;20118;-74
2023/07/29 08:07:01;;;;;;;6.13;2.78;;;;;;;18.93;100.00;100661.50;5054510;28;20598;-75
2023/07/29 08:09:26;;;;;;;4.95;3.00;;;;;;;19.28;100.00;100704.25;5070976;28;20048;-72
2023/07/29 08:11:52;;;;;;;8.88;2.58;;;;;;;19.53;100.00;100684.69;5068127;28;20090;-72
2023/07/29 08:14:17;;;;;;;3.58;2.53;;;;;;;19.95;100.00;100704.72;5069758;28;20115;-71
2023/07/29 08:16:42;;;;;;;4.75;2.83;;;;;;;19.90;100.00;100690.06;5070671;28;20115;-78
2023/07/29 08:19:09;;;;;;;4.10;2.80;;;;;;;19.77;100.00;100695.97;5069379;28;20400;-73
2023/07/29 08:21:36;;;;;;;4.25;2.90;;;;;;;19.83;100.00;100694.09;5069145;28;20021;-76
2023/07/29 08:24:02;;;;;;;3.17;2.42;;;;;;;20.02;100.00;100695.28;5068280;28;20456;-74
2023/07/29 08:26:27;;;;;;;4.88;2.97;;;;;;;20.19;100.00;100702.41;5069339;28;20035;-75
2023/07/29 08:28:53;;;;;;;4.78;3.17;;;;;;;20.44;97.71;100712.53;5069860;28;20047;-76
2023/07/29 08:31:18;;;;;;;4.90;3.13;;;;;;;20.42;96.82;100710.06;5068892;28;20043;-75
2023/07/29 08:33:43;;;;;;;6.57;2.92;;;;;;;20.30;98.59;100707.63;5067491;28;20097;-75
2023/07/29 08:36:09;;;;;;;3.85;2.20;;;;;;;20.23;98.86;100706.22;5067403;28;20039;-76
2023/07/29 08:38:34;;;;;;;2.10;1.90;;;;;;;20.12;100.00;100705.34;5067585;28;20116;-76
2023/07/29 08:41:11;;;;;;;2.13;1.83;;;;;;;20.10;100.00;100700.22;5068170;28;20119;-76
2023/07/29 08:43:39;;;;;;;3.78;2.45;;;;;;;20.55;97.00;100701.47;5067979;28;20052;-76
2023/07/29 08:46:06;;;;;;;3.42;2.00;;;;;;;21.04;95.53;100705.66;5067901;28;20051;-76
2023/07/29 08:48:39;;;;;;;2.63;2.00;;;;;;;21.34;95.15;100704.00;5068199;28;20039;-76
2023/07/29 08:51:07;;;;;;;4.30;1.80;;;;;;;21.23;93.68;100701.28;5067990;28;20458;-76
2023/07/29 08:53:33;;;;;;;3.08;1.63;;;;;;;21.22;95.99;100706.97;5069229;28;20038;-76
2023/07/29 08:55:59;;;;;;;5.05;1.98;;;;;;;21.46;95.59;100693.72;5069168;28;20036;-75
2023/07/29 08:58:25;;;;;;;2.90;1.80;;;;;;;21.52;90.43;100699.97;5069293;28;20024;-76
2023/07/29 09:00:50;;;;;;;3.17;1.40;;;;;;;21.26;90.15;100707.28;5056213;28;20024;-76
2023/07/29 09:03:16;;;;;;;4.72;1.80;;;;;;;20.98;90.31;100702.09;5068983;28;20032;-76
2023/07/29 09:05:41;;;;;;;3.95;1.70;;;;;;;21.00;90.53;100699.13;5068783;28;20395;-76
2023/07/29 09:08:07;;;;;;;2.75;1.45;;;;;;;21.05;94.27;100696.41;5068799;28;20037;-76
2023/07/29 09:10:39;;;;;;;3.78;1.50;;;;;;;21.13;92.09;100697.78;5066895;28;20052;-76
2023/07/29 09:13:05;;;;;;;3.33;1.85;;;;;;;21.02;91.62;100692.34;5069297;28;20035;-77
2023/07/29 09:15:33;;;;;;;2.95;1.75;;;;;;;21.28;93.29;100686.94;5069810;28;20391;-76
2023/07/29 09:17:59;;;;;;;4.25;2.15;;;;;;;21.34;91.35;100693.97;5069472;28;20024;-78
2023/07/29 09:20:28;;;;;;;4.00;2.33;;;;;;;21.39;93.18;100690.47;5069030;28;20040;-76
2023/07/29 09:22:55;;;;;;;3.28;1.63;;;;;;;21.34;89.72;100685.81;5069046;28;20028;-76
2023/07/29 09:25:27;;;;;;;4.03;1.23;;;;;;;21.34;87.94;100693.97;5069155;28;20032;-77
2023/07/29 09:27:58;;;;;;;1.48;1.25;;;;;;;21.32;88.80;100681.75;5069264;28;20028;-77
2023/07/29 09:30:23;;;;;;;2.50;1.73;;;;;;;21.38;89.57;100683.44;5068970;28;20033;-77
2023/07/29 09:32:54;;;;;;;3.05;1.33;;;;;;;21.41;90.48;100688.31;5068398;28;20522;-76
2023/07/29 09:35:20;;;;;;;1.17;1.10;;;;;;;21.33;89.51;100688.84;5068800;28;20044;-76
2023/07/29 09:37:45;;;;;;;4.78;1.83;;;;;;;21.43;90.98;100678.81;5069016;28;20033;-76
2023/07/29 09:40:15;;;;;;;2.83;1.48;;;;;;;21.64;91.95;100681.47;5068826;28;20024;-76
2023/07/29 09:42:47;;;;;;;4.10;1.48;;;;;;;21.63;88.88;100680.66;5068850;28;20052;-76
2023/07/29 09:45:19;;;;;;;2.40;1.30;;;;;;;21.60;89.12;100677.69;5068456;28;20113;-75
2023/07/29 09:47:46;;;;;;;2.28;1.85;;;;;;;21.56;87.89;100687.44;5067682;28;20025;-75
2023/07/29 09:50:11;;;;;;;1.45;1.10;;;;;;;21.67;89.53;100680.94;5068620;28;20048;-76
2023/07/29 09:52:37;;;;;;;4.03;1.30;;;;;;;21.90;88.16;100690.34;5068903;28;20036;-75
2023/07/29 09:55:03;;;;;;;1.90;1.52;;;;;;;21.91;87.03;100686.56;5069123;28;20024;-75
2023/07/29 09:57:29;;;;;;;2.85;1.00;;;;;;;21.75;87.82;100688.53;5068765;28;20024;-77
2023/07/29 09:59:56;;;;;;;3.35;1.08;;;;;;;21.57;86.85;100691.81;5068904;28;20119;-75
2023/07/29 10:02:22;;;;;;;1.20;1.10;;;;;;;21.48;87.00;100694.25;5068736;28;20034;-77
2023/07/29 10:04:48;;;;;;;4.32;1.40;;;;;;;21.34;86.33;100690.44;5068933;28;20032;-76
2023/07/29 10:07:14;;;;;;;1.83;1.30;;;;;;;21.21;87.10;100695.31;5067624;28;20066;-76
2023/07/29 10:09:40;;;;;;;1.70;1.02;;;;;;;21.11;89.59;100689.09;5067433;28;20506;-78
2023/07/29 10:12:09;;;;;;;1.58;1.40;;;;;;;21.06;88.60;100694.50;5066753;28;20068;-80
2023/07/29 10:14:38;;;;;;;2.58;1.52;;;;;;;21.00;90.26;100699.13;5066518;28;20036;-74
2023/07/29 10:17:04;;;;;;;4.13;1.50;;;;;;;21.01;90.49;100696.16;5068313;28;20523;-75
2023/07/29 10:19:31;;;;;;;4.35;1.60;;;;;;;21.07;91.29;100696.16;5067118;28;20032;-78
2023/07/29 10:22:00;;;;;;;3.75;1.90;;;;;;;21.06;90.37;100687.19;5070319;28;20024;-74
2023/07/29 10:24:30;;;;;;;1.70;1.60;;;;;;;21.21;89.31;100683.66;5070112;28;20040;-74
2023/07/29 10:27:00;;;;;;;2.58;1.40;;;;;;;21.54;90.97;100676.88;5071716;28;20476;-72
2023/07/29 10:29:31;;;;;;;1.67;1.30;;;;;;;21.95;89.89;100667.81;5071732;28;20032;-73
2023/07/29 10:31:58;;;;;;;2.88;1.60;;;;;;;22.31;89.34;100680.19;5071727;28;20024;-73
2023/07/29 10:34:24;;;;;;;2.13;1.33;;;;;;;22.38;85.50;100679.09;5071812;28;20192;-74
2023/07/29 10:36:51;;;;;;;5.88;2.08;;;;;;;22.49;86.60;100672.50;5071947;28;20086;-74
2023/07/29 10:39:16;;;;;;;2.58;1.85;;;;;;;22.59;86.16;100677.88;5071421;28;20024;-73
2023/07/29 10:41:58;;;;;;;1.83;1.50;;;;;;;22.66;86.06;100664.78;5071574;28;20040;-73
2023/07/29 10:44:51;;;;;;;3.22;1.30;;;;;;;22.92;87.36;100676.28;5071762;28;20067;-72
2023/07/29 10:47:18;;;;;;;2.30;1.55;;;;;;;23.09;84.68;100662.31;5068588;28;20778;-72
2023/07/29 10:49:45;;;;;;;2.80;1.38;;;;;;;23.20;82.75;100665.75;5071436;28;20050;-73
2023/07/29 10:52:15;;;;;;;2.50;1.70;;;;;;;23.04;80.39;100654.19;5071250;28;20032;-73
2023/07/29 10:54:45;;;;;;;3.67;1.75;;;;;;;22.90;80.44;100662.16;5071644;28;20032;-72
2023/07/29 10:57:16;;;;;;;3.60;1.67;;;;;;;22.94;84.59;100662.38;5071466;28;20379;-74
2023/07/29 10:59:54;;;;;;;;;;;;;;;22.97;81.11;100659.13;5071852;28;20043;-74
2023/07/29 11:02:19;;;;;;;6.70;2.60;;;;;;;22.66;80.71;100662.06;5071246;28;19912;-73
2023/07/29 11:04:50;;;;;;;1.52;1.40;;;;;;;22.72;84.90;100669.09;5069672;28;20043;-73
2023/07/29 11:07:16;;;;;;;3.53;2.20;;;;;;;22.65;83.76;100656.91;5071543;28;20076;-73
2023/07/29 11:09:50;;;;;;;2.70;1.37;;;;;;;22.53;82.23;100666.22;5070047;28;20375;-73
2023/07/29 11:12:37;;;;;;;2.78;1.70;;;;;;;22.34;83.14;100664.41;5071159;28;20765;-73
2023/07/29 11:15:14;;;;;;;11.02;2.22;;;;;;;22.16;84.19;100654.97;5070788;28;20033;-73